Sørkjosen Airport

Airport
ICAO code: 
ENSR
IATA Code: 
SOJ
Summary
ICAO Region: 
EUR
Territory: 
Location: 
Sørkjosen, Nordreisa, Troms,
Serving: 
Sørkjosen
Coordinates: 
Aerial View: 
69° 47' 11.268" N, 20° 57' 35.36" E
Airport CFIT: 
Altimeter Temperature Error Correction
Airport GND: 
Aircraft Ground De/Anti Icing
Airport WX: 
Low Level Turbulence
Metar
Observation
ENSR 161250Z 17002KT 9999 -SHSN SCT020 BKN034 M04/M05 Q0971 RMK WIND 1119FT 14007KT
Station
Sorkjosen
Date/Time
2022-01-16 12:50:00
Wind direction
170°
Wind speed
02 kts
Lowest cloud amount
scattered clouds
Temperature
-4°C
Dew point
-5°C
Humidity
92%
QNH
971 hPa
Weather condition
light showers snow

Description

Airport in Sørkjosen in the municipality of Nordreisa, Troms in Northern Norway.

Climatology

Borderline Subpolar Oceanic/Continental subarctic climate (because of winter temperatures) (Köppen climate classification Cfc/Dfc) - uniform precipitation distribution, temperatures are moderated by the proximity of the ocean and warm currents - cool summers and comparatively mild winters.

Heavy snowfalls in winter.

Runways

Designator Length Width Surface Rops
15/33 919 30 ASP No/No
Airport map: 
Aerial View: 

SKYbrary Partners:

Safety knowledge contributed by: